createdAt,value
2019-03-26T00:00:15.641Z,97952.20
2019-03-26T00:03:25.170Z,97947.95
2019-03-26T00:06:33.024Z,97953.86
2019-03-26T00:09:41.062Z,97960.18
2019-03-26T00:12:49.023Z,97961.91
2019-03-26T00:15:56.857Z,97960.63
2019-03-26T00:19:06.088Z,97970.33
2019-03-26T00:22:13.934Z,97979.15
2019-03-26T00:25:21.902Z,97977.03
2019-03-26T00:28:29.847Z,97973.27
2019-03-26T00:31:37.977Z,97968.20
2019-03-26T00:34:45.977Z,97971.20
2019-03-26T00:37:54.004Z,97973.34
2019-03-26T00:41:02.877Z,97972.06
2019-03-26T00:44:10.936Z,97978.38
2019-03-26T00:47:18.851Z,97981.35
2019-03-26T00:50:28.460Z,97996.07
2019-03-26T00:53:36.449Z,97998.66
2019-03-26T00:56:44.880Z,97996.14
2019-03-26T00:59:52.734Z,97993.16
2019-03-26T01:03:00.714Z,98001.98
2019-03-26T01:06:08.625Z,98006.70
2019-03-26T01:09:16.538Z,98010.49
2019-03-26T01:12:24.959Z,98010.88
2019-03-26T01:15:32.919Z,98017.66
2019-03-26T01:18:40.738Z,98019.36
2019-03-26T01:21:50.213Z,98015.95
2019-03-26T01:25:00.866Z,98010.09
2019-03-26T01:28:08.843Z,98025.70
2019-03-26T01:31:16.711Z,98026.09
2019-03-26T01:34:26.900Z,98017.28
2019-03-26T01:37:34.980Z,98020.23
2019-03-26T01:40:42.862Z,98023.99
2019-03-26T01:43:51.871Z,98027.39
2019-03-26T01:46:59.807Z,98035.42
2019-03-26T01:50:08.250Z,98031.62
2019-03-26T01:53:16.163Z,98032.86
2019-03-26T01:56:24.029Z,98039.61
2019-03-26T01:59:35.064Z,98044.27
2019-03-26T02:02:43.036Z,98042.99
2019-03-26T02:05:51.254Z,98041.28
2019-03-26T02:08:59.234Z,98043.44
2019-03-26T02:12:07.313Z,98045.54
2019-03-26T02:15:28.747Z,98043.42
2019-03-26T02:18:36.918Z,98048.90
2019-03-26T02:21:44.737Z,98048.07
2019-03-26T02:24:52.666Z,98051.50
2019-03-26T02:28:00.610Z,98056.10
2019-03-26T02:31:08.552Z,98054.42
2019-03-26T02:34:18.194Z,98060.77
2019-03-26T02:37:26.172Z,98053.98
2019-03-26T02:40:35.701Z,98065.77
2019-03-26T02:43:43.807Z,98063.70
2019-03-26T02:46:51.728Z,98064.97
2019-03-26T02:49:59.697Z,98060.30
2019-03-26T02:53:08.989Z,98068.72
2019-03-26T02:56:20.373Z,98066.20
2019-03-26T02:59:28.468Z,98072.59
2019-03-26T03:02:36.905Z,98078.96
2019-03-26T03:05:44.751Z,98087.34
2019-03-26T03:08:52.700Z,98078.09
2019-03-26T03:12:00.817Z,98086.92
2019-03-26T03:15:10.045Z,98092.03
2019-03-26T03:18:18.442Z,98090.75
2019-03-26T03:21:26.335Z,98087.83
2019-03-26T03:24:34.149Z,98086.92
2019-03-26T03:27:42.179Z,98088.97
2019-03-26T03:30:50.055Z,98093.59
2019-03-26T03:33:58.024Z,98092.38
2019-03-26T03:37:05.867Z,98097.07
2019-03-26T03:40:14.467Z,98095.39
2019-03-26T03:43:22.613Z,98096.21
2019-03-26T03:46:30.919Z,98093.27
2019-03-26T03:49:38.940Z,98102.07
2019-03-26T03:52:47.672Z,98094.92
2019-03-26T03:55:58.945Z,98097.09
2019-03-26T03:59:08.641Z,98099.21
2019-03-26T04:02:17.138Z,98095.77
2019-03-26T04:05:25.960Z,98101.30
2019-03-26T04:08:33.877Z,98103.37
2019-03-26T04:11:41.917Z,98102.55
2019-03-26T04:14:49.837Z,98100.84
2019-03-26T04:17:57.837Z,98101.27
2019-03-26T04:21:06.727Z,98102.16
2019-03-26T04:24:14.550Z,98099.62
2019-03-26T04:27:22.441Z,98105.56
2019-03-26T04:30:32.435Z,98114.81
2019-03-26T04:33:40.365Z,98106.38
2019-03-26T04:36:48.383Z,98109.75
2019-03-26T04:39:56.177Z,98116.11
2019-03-26T04:43:04.083Z,98120.63
2019-03-26T04:46:12.094Z,98127.75
2019-03-26T04:49:25.967Z,98124.86
2019-03-26T04:52:33.847Z,98123.64
2019-03-26T04:55:41.936Z,98130.86
2019-03-26T04:58:49.827Z,98121.96
2019-03-26T05:01:59.505Z,98126.20
2019-03-26T05:05:07.331Z,98130.05
2019-03-26T05:08:15.486Z,98119.94
2019-03-26T05:11:23.323Z,98121.47
2019-03-26T05:14:32.065Z,98126.17
2019-03-26T05:17:39.916Z,98129.61
2019-03-26T05:20:47.772Z,98124.47
2019-03-26T05:23:55.766Z,98127.45
2019-03-26T05:27:04.004Z,98124.88
2019-03-26T05:30:12.044Z,98127.53
2019-03-26T05:33:24.957Z,98130.46
2019-03-26T05:36:32.813Z,98135.19
2019-03-26T05:39:40.658Z,98137.27
2019-03-26T05:42:48.491Z,98143.15
2019-03-26T05:45:56.504Z,98146.94
2019-03-26T05:49:04.444Z,98142.72
2019-03-26T05:52:12.317Z,98143.18
2019-03-26T05:55:23.077Z,98144.41
2019-03-26T05:58:31.075Z,98144.86
2019-03-26T06:01:38.988Z,98140.66
2019-03-26T06:04:46.842Z,98140.62
2019-03-26T06:07:54.855Z,98143.16
2019-03-26T06:11:03.163Z,98143.59
2019-03-26T06:14:11.151Z,98152.93
2019-03-26T06:17:19.120Z,98150.44
2019-03-26T06:20:26.946Z,98147.92
2019-03-26T06:23:34.803Z,98158.81
2019-03-26T06:26:42.565Z,98166.05
2019-03-26T06:29:50.397Z,98163.09
2019-03-26T06:32:58.280Z,98166.05
2019-03-26T06:36:06.123Z,98168.22
2019-03-26T06:39:15.758Z,98165.70
2019-03-26T06:42:23.785Z,98171.60
2019-03-26T06:45:32.295Z,98173.28
2019-03-26T06:48:41.435Z,98172.88
2019-03-26T06:51:49.233Z,98174.16
2019-03-26T06:54:57.047Z,98172.06
2019-03-26T06:58:04.826Z,98176.70
2019-03-26T07:01:12.983Z,98177.10
2019-03-26T07:04:22.484Z,98181.78
2019-03-26T07:07:31.835Z,98180.09
2019-03-26T07:10:42.780Z,98187.72
2019-03-26T07:13:50.967Z,98188.58
2019-03-26T07:16:58.925Z,98196.19
2019-03-26T07:20:08.191Z,98205.48
2019-03-26T07:23:20.184Z,98211.39
2019-03-26T07:26:28.149Z,98209.67
2019-03-26T07:29:35.926Z,98222.77
2019-03-26T07:32:43.779Z,98219.43
2019-03-26T07:35:51.634Z,98213.94
2019-03-26T07:38:59.557Z,98208.94
2019-03-26T07:42:07.332Z,98204.28
2019-03-26T07:45:15.839Z,98206.80
2019-03-26T07:48:23.690Z,98211.89
2019-03-26T07:51:31.587Z,98213.17
2019-03-26T07:54:39.378Z,98217.80
2019-03-26T07:57:47.391Z,98223.75
2019-03-26T08:00:55.281Z,98219.52
2019-03-26T08:04:03.316Z,98214.02
2019-03-26T08:07:11.799Z,98218.72
2019-03-26T08:10:19.637Z,98211.16
2019-03-26T08:13:27.441Z,98210.30
2019-03-26T08:16:35.885Z,98219.22
2019-03-26T08:19:43.715Z,98228.10
2019-03-26T08:22:51.556Z,98221.80
2019-03-26T08:26:02.215Z,98223.88
2019-03-26T08:29:10.463Z,98231.98
2019-03-26T08:32:18.584Z,98231.54
2019-03-26T08:35:26.446Z,98238.77
2019-03-26T08:38:34.292Z,98238.75
2019-03-26T08:41:42.102Z,98232.44
2019-03-26T08:44:49.967Z,98237.93
2019-03-26T08:47:57.937Z,98229.46
2019-03-26T08:51:05.994Z,98229.91
2019-03-26T08:54:13.953Z,98233.28
2019-03-26T08:57:21.840Z,98236.67
2019-03-26T09:00:32.069Z,98232.45
2019-03-26T09:03:44.577Z,98236.67
2019-03-26T09:06:52.489Z,98235.81
2019-03-26T09:10:00.429Z,98224.42
2019-03-26T09:13:09.032Z,98219.79
2019-03-26T09:16:16.870Z,98220.20
2019-03-26T09:19:27.110Z,98223.96
2019-03-26T09:22:34.903Z,98215.95
2019-03-26T09:25:42.837Z,98226.52
2019-03-26T09:28:51.933Z,98224.39
2019-03-26T09:31:59.747Z,98223.97
2019-03-26T09:35:10.977Z,98214.22
2019-03-26T09:38:18.884Z,98212.95
2019-03-26T09:41:26.674Z,98225.69
2019-03-26T09:44:34.618Z,98218.92
2019-03-26T09:47:42.460Z,98226.95
2019-03-26T09:50:50.269Z,98225.25
2019-03-26T09:53:58.161Z,98218.52
2019-03-26T09:57:08.297Z,98214.25
2019-03-26T10:00:16.410Z,98222.30
2019-03-26T10:03:24.216Z,98219.31
2019-03-26T10:06:32.133Z,98216.80
2019-03-26T10:09:40.085Z,98217.66
2019-03-26T10:12:49.899Z,98207.94
2019-03-26T10:15:57.478Z,98210.50
2019-03-26T10:19:06.312Z,98218.98
2019-03-26T10:22:15.528Z,98223.19
2019-03-26T10:25:23.387Z,98234.58
2019-03-26T10:28:31.341Z,98241.73
2019-03-26T10:31:39.161Z,98232.34
2019-03-26T10:34:47.286Z,98234.47
2019-03-26T10:37:55.361Z,98228.19
2019-03-26T10:41:06.991Z,98232.84
2019-03-26T10:44:14.875Z,98219.33
2019-03-26T10:47:24.212Z,98214.25
2019-03-26T10:50:37.748Z,98209.21
2019-03-26T10:53:46.617Z,98199.06
2019-03-26T10:56:57.312Z,98206.22
2019-03-26T11:00:06.730Z,98201.58
2019-03-26T11:03:16.614Z,98207.94
2019-03-26T11:06:25.184Z,98210.08
2019-03-26T11:09:33.262Z,98208.81
2019-03-26T11:12:41.795Z,98201.62
2019-03-26T11:15:49.872Z,98201.62
2019-03-26T11:18:58.199Z,98196.53
2019-03-26T11:22:09.270Z,98188.45
2019-03-26T11:25:22.593Z,98185.52
2019-03-26T11:28:30.693Z,98184.59
2019-03-26T11:31:39.053Z,98191.45
2019-03-26T11:34:47.888Z,98202.89
2019-03-26T11:37:56.547Z,98209.23
2019-03-26T11:41:05.072Z,98199.47
2019-03-26T11:44:13.442Z,98197.73
2019-03-26T11:47:23.829Z,98196.03
2019-03-26T11:50:32.092Z,98187.96
2019-03-26T11:53:40.506Z,98196.03
2019-03-26T11:56:49.260Z,98195.14
2019-03-26T11:59:57.553Z,98212.91
2019-03-26T12:03:10.179Z,98202.78
2019-03-26T12:06:21.862Z,98195.59
2019-03-26T12:09:30.384Z,98193.86
2019-03-26T12:12:40.444Z,98183.27
2019-03-26T12:15:51.938Z,98181.09
2019-03-26T12:19:03.148Z,98173.52
2019-03-26T12:22:13.379Z,98169.72
2019-03-26T12:25:22.686Z,98170.95
2019-03-26T12:28:30.880Z,98165.47
2019-03-26T12:31:39.131Z,98167.58
2019-03-26T12:34:50.546Z,98171.73
2019-03-26T12:37:58.762Z,98170.91
2019-03-26T12:41:09.850Z,98158.63
2019-03-26T12:44:20.572Z,98155.20
2019-03-26T12:47:29.155Z,98154.72
2019-03-26T12:50:37.521Z,98153.55
2019-03-26T12:53:46.084Z,98151.42
2019-03-26T12:56:54.311Z,98153.12
2019-03-26T13:00:02.525Z,98150.95
2019-03-26T13:03:10.755Z,98156.39
2019-03-26T13:06:19.299Z,98146.17
2019-03-26T13:09:27.369Z,98145.78
2019-03-26T13:12:35.967Z,98144.56
2019-03-26T13:15:46.094Z,98135.17
2019-03-26T13:18:54.556Z,98134.74
2019-03-26T13:22:02.790Z,98139.78
2019-03-26T13:25:11.767Z,98139.98
2019-03-26T13:28:21.356Z,98139.70
2019-03-26T13:31:31.331Z,98137.05
2019-03-26T13:34:40.362Z,98149.39
2019-03-26T13:37:51.685Z,98154.06
2019-03-26T13:41:01.829Z,98147.45
2019-03-26T13:44:10.069Z,98143.78
2019-03-26T13:47:19.508Z,98145.02
2019-03-26T13:50:28.004Z,98146.77
2019-03-26T13:53:36.183Z,98149.71
2019-03-26T13:56:44.474Z,98144.61
2019-03-26T13:59:52.642Z,98149.21
2019-03-26T14:03:01.355Z,98147.97
2019-03-26T14:06:09.504Z,98132.48
2019-03-26T14:09:17.683Z,98125.74
2019-03-26T14:12:25.832Z,98126.66
2019-03-26T14:15:35.330Z,98127.85
2019-03-26T14:18:43.284Z,98121.92
2019-03-26T14:21:52.060Z,98119.34
2019-03-26T14:25:00.399Z,98133.02
2019-03-26T14:28:08.644Z,98118.10
2019-03-26T14:31:17.391Z,98111.76
2019-03-26T14:34:25.561Z,98109.27
2019-03-26T14:37:35.189Z,98116.00
2019-03-26T14:40:54.042Z,98119.87
2019-03-26T14:43:53.241Z,98119.52
2019-03-26T14:47:01.456Z,98117.45
2019-03-26T14:50:10.162Z,98121.81
2019-03-26T14:53:18.425Z,98118.00
2019-03-26T14:56:26.592Z,98123.90
2019-03-26T14:59:34.763Z,98130.74
2019-03-26T15:02:42.811Z,98134.06
2019-03-26T15:05:51.086Z,98126.04
2019-03-26T15:08:59.796Z,98125.22
2019-03-26T15:12:10.236Z,98124.41
2019-03-26T15:15:18.337Z,98116.74
2019-03-26T15:18:26.880Z,98117.14
2019-03-26T15:21:35.111Z,98117.20
2019-03-26T15:24:43.550Z,98115.12
2019-03-26T15:27:52.670Z,98121.49
2019-03-26T15:31:02.759Z,98128.22
2019-03-26T15:34:11.474Z,98121.47
2019-03-26T15:37:21.240Z,98124.08
2019-03-26T15:40:31.762Z,98130.00
2019-03-26T15:43:45.324Z,98130.53
2019-03-26T15:46:54.565Z,98138.59
2019-03-26T15:50:02.749Z,98127.17
2019-03-26T15:53:10.807Z,98122.50
2019-03-26T15:56:18.971Z,98121.66
2019-03-26T15:59:27.038Z,98121.23
2019-03-26T16:02:35.144Z,98124.58
2019-03-26T16:05:43.177Z,98119.11
2019-03-26T16:08:51.509Z,98112.34
2019-03-26T16:11:59.499Z,98119.14
2019-03-26T16:15:09.039Z,98124.67
2019-03-26T16:18:17.227Z,98114.53
2019-03-26T16:21:27.041Z,98125.55
2019-03-26T16:24:35.815Z,98130.63
2019-03-26T16:27:44.900Z,98127.25
2019-03-26T16:30:53.197Z,98131.92
2019-03-26T16:34:01.664Z,98132.40
2019-03-26T16:37:12.665Z,98126.05
2019-03-26T16:40:23.831Z,98134.52
2019-03-26T16:43:35.898Z,98128.16
2019-03-26T16:46:44.533Z,98130.31
2019-03-26T16:49:52.806Z,98126.92
2019-03-26T16:53:01.263Z,98129.05
2019-03-26T16:56:09.526Z,98129.46
2019-03-26T16:59:17.899Z,98114.22
2019-03-26T17:02:25.992Z,98119.74
2019-03-26T17:05:34.111Z,98119.33
2019-03-26T17:08:44.966Z,98123.09
2019-03-26T17:12:03.159Z,98129.95
2019-03-26T17:15:03.213Z,98126.56
2019-03-26T17:18:11.297Z,98123.21
2019-03-26T17:21:19.380Z,98123.63
2019-03-26T17:24:27.196Z,98119.40
2019-03-26T17:27:35.016Z,98125.30
2019-03-26T17:30:42.661Z,98128.28
2019-03-26T17:33:50.423Z,98124.91
2019-03-26T17:36:58.299Z,98128.30
2019-03-26T17:40:07.263Z,98128.33
2019-03-26T17:43:14.965Z,98128.31
2019-03-26T17:46:22.759Z,98130.02
2019-03-26T17:49:30.530Z,98132.11
2019-03-26T17:52:39.851Z,98131.70
2019-03-26T17:55:50.714Z,98135.51
2019-03-26T17:58:59.650Z,98134.29
2019-03-26T18:02:09.127Z,98149.09
2019-03-26T18:05:33.365Z,98150.34
2019-03-26T18:08:42.318Z,98156.72
2019-03-26T18:11:50.108Z,98158.44
2019-03-26T18:14:58.054Z,98166.48
2019-03-26T18:18:06.051Z,98169.02
2019-03-26T18:21:13.845Z,98172.82
2019-03-26T18:24:21.698Z,98174.53
2019-03-26T18:27:34.185Z,98180.88
2019-03-26T18:30:40.466Z,98178.75
2019-03-26T18:33:49.769Z,98178.32
2019-03-26T18:37:00.124Z,98183.39
2019-03-26T18:40:10.771Z,98187.20
2019-03-26T18:43:19.551Z,98193.95
2019-03-26T18:46:28.477Z,98192.27
2019-03-26T18:49:39.955Z,98188.88
2019-03-26T18:52:51.792Z,98192.70
2019-03-26T18:56:00.751Z,98194.41
2019-03-26T18:59:08.582Z,98197.36
2019-03-26T19:02:16.275Z,98190.17
2019-03-26T19:05:24.039Z,98193.97
2019-03-26T19:08:31.716Z,98188.90
2019-03-26T19:11:39.782Z,98189.34
2019-03-26T19:14:47.462Z,98192.70
2019-03-26T19:17:55.194Z,98194.82
2019-03-26T19:21:03.007Z,98201.16
2019-03-26T19:24:12.934Z,98202.02
2019-03-26T19:27:20.631Z,98202.00
2019-03-26T19:30:28.410Z,98205.78
2019-03-26T19:33:36.089Z,98209.13
2019-03-26T19:36:45.048Z,98211.68
2019-03-26T19:39:53.708Z,98203.66
2019-03-26T19:43:10.771Z,98218.84
2019-03-26T19:46:11.542Z,98213.74
2019-03-26T19:49:19.253Z,98214.19
2019-03-26T19:52:26.906Z,98210.41
2019-03-26T19:55:34.605Z,98212.91
2019-03-26T19:58:42.497Z,98209.09
2019-03-26T20:01:51.372Z,98217.92
2019-03-26T20:04:59.061Z,98213.27
2019-03-26T20:08:06.871Z,98214.12
2019-03-26T20:11:15.518Z,98223.83
2019-03-26T20:14:23.616Z,98220.84
2019-03-26T20:17:32.570Z,98225.50
2019-03-26T20:20:40.475Z,98226.81
2019-03-26T20:23:48.305Z,98222.19
2019-03-26T20:26:56.044Z,98230.62
2019-03-26T20:30:03.820Z,98235.27
2019-03-26T20:33:11.848Z,98230.65
2019-03-26T20:36:19.876Z,98258.52
2019-03-26T20:39:27.568Z,98258.08
2019-03-26T20:42:37.697Z,98259.02
2019-03-26T20:45:48.567Z,98268.72
2019-03-26T20:48:56.234Z,98272.05
2019-03-26T20:52:04.061Z,98273.32
2019-03-26T20:55:13.044Z,98269.56
2019-03-26T20:58:20.987Z,98274.18
2019-03-26T21:01:29.102Z,98275.50
2019-03-26T21:04:36.893Z,98281.83
2019-03-26T21:07:47.671Z,98270.80
2019-03-26T21:10:53.995Z,98275.45
2019-03-26T21:14:01.683Z,98279.29
2019-03-26T21:17:09.511Z,98299.91
2019-03-26T21:20:17.220Z,98297.84
2019-03-26T21:23:24.993Z,98301.83
2019-03-26T21:26:32.659Z,98302.95
2019-03-26T21:29:40.363Z,98298.69
2019-03-26T21:32:50.426Z,98300.73
2019-03-26T21:35:58.160Z,98298.24
2019-03-26T21:39:06.544Z,98306.20
2019-03-26T21:42:15.837Z,98307.51
2019-03-26T21:45:38.661Z,98312.61
2019-03-26T21:48:46.699Z,98311.80
2019-03-26T21:51:54.467Z,98317.84
2019-03-26T21:55:02.168Z,98313.88
2019-03-26T21:58:09.954Z,98317.02
2019-03-26T22:01:17.660Z,98315.39
2019-03-26T22:04:25.408Z,98322.20
2019-03-26T22:07:34.675Z,98323.92
2019-03-26T22:10:42.406Z,98318.79
2019-03-26T22:13:50.134Z,98320.47
2019-03-26T22:16:58.261Z,98316.70
2019-03-26T22:20:06.274Z,98316.70
2019-03-26T22:23:14.121Z,98318.28
2019-03-26T22:26:21.852Z,98317.04
2019-03-26T22:29:29.587Z,98322.14
2019-03-26T22:32:37.313Z,98324.31
2019-03-26T22:35:44.983Z,98327.27
2019-03-26T22:38:52.790Z,98324.77
2019-03-26T22:42:00.587Z,98321.42
2019-03-26T22:45:10.420Z,98330.27
2019-03-26T22:48:19.408Z,98323.02
2019-03-26T22:51:28.945Z,98322.70
2019-03-26T22:54:36.555Z,98323.14
2019-03-26T22:57:44.333Z,98330.31
2019-03-26T23:00:52.740Z,98328.24
2019-03-26T23:04:02.181Z,98319.38
2019-03-26T23:07:09.844Z,98337.95
2019-03-26T23:10:19.805Z,98335.03
2019-03-26T23:13:29.690Z,98336.69
2019-03-26T23:16:37.460Z,98333.74
2019-03-26T23:19:45.117Z,98338.81
2019-03-26T23:22:52.818Z,98342.20
2019-03-26T23:26:00.517Z,98336.69
2019-03-26T23:29:08.276Z,98334.62
2019-03-26T23:32:15.973Z,98345.16
2019-03-26T23:35:24.305Z,98340.09
2019-03-26T23:38:33.157Z,98343.91
2019-03-26T23:41:40.874Z,98338.84
2019-03-26T23:44:58.388Z,98333.76
2019-03-26T23:47:57.786Z,98340.06
2019-03-26T23:51:05.529Z,98335.86
2019-03-26T23:54:14.519Z,98349.81
2019-03-26T23:57:22.343Z,98352.77
